Terminal Aerodrome Forecast
Issued by NWS

Home | Current Version | Previous Version | Text Only | Print | Product List | Glossary On
Versions: 1 2 3 4 5 6 7 8 9 10 11 12 13
420
FTUS44 KEPZ 182322
TAFTCS
TAF
KTCS 182322Z 1900/1924 15007KT P6SM SCT100 BKN200
     FM190400 30005KT P6SM FEW080 BKN150 BKN200
     FM191200 VRB04KT P6SM SCT150 BKN200
     FM192000 18009KT P6SM SCT060 SCT120 BKN200=

USA.gov is the U.S. government's official web portal to all federal, state and local government web resources and services.